Time;durP1;ratioP1;P1;durP2;ratioP2;P2;SDS_P1;SDS_P2;PMS_P1;PMS_P2;Temp;Humidity;BMP_temperature;BMP_pressure;BME280_temperature;BME280_humidity;BME280_pressure;Samples;Min_cycle;Max_cycle;Signal;HPM_P1;HPM_P2
2021/06/17 04:33:19;;;;;;;7.03;5.13;;;17.80;99.90;;;;;;4994885;22;20859;-76
2021/06/17 04:35:48;;;;;;;8.10;5.40;;;17.80;99.90;;;;;;4992686;28;20429;-76
2021/06/17 04:38:18;;;;;;;5.70;5.20;;;17.90;99.90;;;;;;4994090;28;20768;-76
2021/06/17 04:40:47;;;;;;;6.33;5.73;;;18.00;99.90;;;;;;4994018;28;22255;-76
2021/06/17 04:43:14;;;;;;;7.60;5.43;;;18.10;99.90;;;;;;4993957;28;20553;-76
2021/06/17 04:45:42;;;;;;;6.30;5.70;;;18.20;99.90;;;;;;4993770;28;20411;-76
2021/06/17 04:48:10;;;;;;;6.20;4.60;;;18.30;99.90;;;;;;4993960;28;20422;-76
2021/06/17 04:50:37;;;;;;;8.17;6.30;;;18.40;99.90;;;;;;4993302;28;20776;-77
2021/06/17 04:53:17;;;;;;;8.00;6.47;;;18.50;99.90;;;;;;4993853;28;20414;-75
2021/06/17 04:55:47;;;;;;;6.17;5.13;;;18.60;99.90;;;;;;4993731;28;20410;-75
2021/06/17 04:58:13;;;;;;;5.57;4.70;;;18.80;99.90;;;;;;4993662;28;20423;-76
2021/06/17 05:00:39;;;;;;;6.80;5.30;;;19.10;99.90;;;;;;4993547;28;20411;-76
2021/06/17 05:03:04;;;;;;;5.47;4.97;;;19.40;99.90;;;;;;4993174;28;20595;-74
2021/06/17 05:05:30;;;;;;;6.57;5.27;;;19.90;99.90;;;;;;4993541;28;20184;-74
2021/06/17 05:10:53;;;;;;;8.97;5.73;;;21.10;99.90;;;;;;4993418;28;20242;-74
2021/06/17 05:13:23;;;;;;;11.40;4.53;;;21.70;99.90;;;;;;4993110;28;20541;-78
2021/06/17 05:15:52;;;;;;;10.67;5.20;;;22.30;99.90;;;;;;4993973;28;20415;-81
2021/06/17 05:18:18;;;;;;;9.10;4.30;;;23.00;99.90;;;;;;4976405;28;20423;-81
2021/06/17 05:20:44;;;;;;;6.47;5.70;;;23.50;99.90;;;;;;4993761;28;20446;-81
2021/06/17 05:23:13;;;;;;;7.57;4.83;;;23.90;99.90;;;;;;4993396;28;20487;-81
2021/06/17 05:25:39;;;;;;;11.37;5.30;;;24.30;99.90;;;;;;4993675;28;20195;-82
2021/06/17 05:28:05;;;;;;;10.33;5.33;;;24.80;99.90;;;;;;4993857;28;20442;-82
2021/06/17 05:30:31;;;;;;;8.63;5.97;;;25.20;99.90;;;;;;4993602;28;20179;-81
2021/06/17 05:32:56;;;;;;;5.93;4.90;;;25.40;99.90;;;;;;4976078;28;20995;-82
2021/06/17 05:35:22;;;;;;;12.67;5.50;;;25.60;99.90;;;;;;4993072;28;20563;-81
2021/06/17 05:37:49;;;;;;;8.57;4.80;;;26.00;99.90;;;;;;4993622;28;20662;-82
2021/06/17 05:40:14;;;;;;;7.90;5.00;;;26.40;99.90;;;;;;4993168;28;20246;-82
2021/06/17 05:42:40;;;;;;;7.30;4.93;;;26.70;99.90;;;;;;4993056;28;20462;-82
2021/06/17 05:45:06;;;;;;;6.00;5.40;;;26.80;99.90;;;;;;4993250;28;20189;-81
2021/06/17 05:47:31;;;;;;;8.80;4.33;;;26.80;99.90;;;;;;4993807;28;20234;-82
2021/06/17 05:49:57;;;;;;;10.03;5.90;;;27.00;99.90;;;;;;4993685;28;20414;-82
2021/06/17 05:52:22;;;;;;;7.80;4.97;;;27.20;99.90;;;;;;4993106;28;20191;-82
2021/06/17 05:54:48;;;;;;;12.43;4.70;;;27.30;99.90;;;;;;4996380;28;20186;-82
2021/06/17 05:57:14;;;;;;;9.20;5.07;;;27.60;99.90;;;;;;4993404;28;20187;-81
2021/06/17 05:59:39;;;;;;;8.57;5.03;;;27.80;99.90;;;;;;4993221;28;20179;-82
2021/06/17 06:02:06;;;;;;;6.43;4.10;;;27.90;99.90;;;;;;4992755;28;20214;-81
2021/06/17 06:04:32;;;;;;;7.37;4.60;;;27.90;99.90;;;;;;4993265;28;20168;-82
2021/06/17 06:06:57;;;;;;;6.90;5.70;;;28.20;99.90;;;;;;4994282;28;20892;-80
2021/06/17 06:09:23;;;;;;;8.23;4.37;;;28.00;99.90;;;;;;4993044;28;20603;-76
2021/06/17 06:11:49;;;;;;;4.47;4.03;;;28.40;99.90;;;;;;4990774;28;20624;-76
2021/06/17 06:14:15;;;;;;;5.27;4.77;;;28.70;99.90;;;;;;4991261;28;20414;-76
2021/06/17 06:16:41;;;;;;;6.03;4.33;;;28.80;99.90;;;;;;4987427;28;20433;-76
2021/06/17 06:19:07;;;;;;;7.00;4.63;;;29.20;99.90;;;;;;4991856;28;20179;-75
2021/06/17 06:21:33;;;;;;;4.43;4.10;;;29.30;99.90;;;;;;4996713;28;20215;-76
2021/06/17 06:23:59;;;;;;;12.20;5.60;;;29.40;99.90;;;;;;4992151;28;20179;-76
2021/06/17 06:26:24;;;;;;;4.93;4.43;;;29.40;99.90;;;;;;4991982;28;20410;-75
2021/06/17 06:28:50;;;;;;;6.73;4.57;;;29.60;99.90;;;;;;4991648;28;20246;-75
2021/06/17 06:31:15;;;;;;;9.80;4.53;;;29.80;99.90;;;;;;4991789;28;20587;-76
2021/06/17 06:33:41;;;;;;;6.20;3.97;;;30.10;99.90;;;;;;4991871;28;20230;-76
2021/06/17 06:36:07;;;;;;;7.90;4.60;;;30.30;99.90;;;;;;4974603;28;20182;-76
2021/06/17 06:38:33;;;;;;;4.77;4.27;;;30.40;99.90;;;;;;4991824;28;20183;-76
2021/06/17 06:40:59;;;;;;;4.87;4.47;;;30.40;99.90;;;;;;4992040;28;20668;-76
2021/06/17 06:43:25;;;;;;;7.27;4.70;;;30.50;99.90;;;;;;4991512;28;20257;-76
2021/06/17 06:45:51;;;;;;;10.57;5.10;;;30.80;99.90;;;;;;4989012;28;20426;-77
2021/06/17 06:48:18;;;;;;;10.37;4.50;;;30.80;99.90;;;;;;4990632;28;20265;-76
2021/06/17 06:50:44;;;;;;;4.13;3.80;;;30.60;99.90;;;;;;4991899;28;20167;-76
2021/06/17 06:53:09;;;;;;;7.50;4.97;;;30.60;99.90;;;;;;4991931;28;20497;-76
2021/06/17 06:55:35;;;;;;;7.27;4.40;;;30.90;99.90;;;;;;4991777;28;20183;-76
2021/06/17 06:58:00;;;;;;;8.30;4.10;;;31.10;99.90;;;;;;4991725;28;20187;-76
2021/06/17 07:00:26;;;;;;;6.77;4.80;;;31.30;99.90;;;;;;4991956;28;20578;-75
2021/06/17 07:02:52;;;;;;;3.83;3.20;;;31.60;99.90;;;;;;4991808;28;20688;-75
2021/06/17 07:05:17;;;;;;;4.60;3.80;;;31.80;99.90;;;;;;4991452;28;20821;-75
2021/06/17 07:07:43;;;;;;;5.00;3.47;;;31.90;99.90;;;;;;4986594;28;20175;-75
2021/06/17 07:10:10;;;;;;;2.83;2.63;;;32.00;99.90;;;;;;4974565;28;20190;-75
2021/06/17 07:12:35;;;;;;;4.10;3.80;;;32.00;99.90;;;;;;4970880;28;20226;-74
2021/06/17 07:15:01;;;;;;;3.37;3.07;;;32.20;99.90;;;;;;4972162;28;20838;-76
2021/06/17 07:17:27;;;;;;;3.07;2.77;;;32.50;99.90;;;;;;4972346;28;20557;-77
2021/06/17 07:19:55;;;;;;;7.97;3.13;;;32.70;99.90;;;;;;4972469;28;20188;-75
2021/06/17 07:22:21;;;;;;;4.23;2.80;;;32.60;99.70;;;;;;4954895;28;21030;-75
2021/06/17 07:24:47;;;;;;;5.10;2.90;;;32.50;98.50;;;;;;4971741;28;20851;-76
2021/06/17 07:27:12;;;;;;;3.10;2.60;;;32.70;97.90;;;;;;4972004;28;20419;-76
2021/06/17 07:29:38;;;;;;;5.23;3.07;;;32.70;97.20;;;;;;4972396;28;20173;-77
2021/06/17 07:32:04;;;;;;;4.27;2.93;;;32.40;96.40;;;;;;4954327;28;20230;-76
2021/06/17 07:34:30;;;;;;;8.67;2.93;;;32.50;96.60;;;;;;4971702;28;20191;-76
2021/06/17 07:36:55;;;;;;;2.83;2.63;;;32.60;97.50;;;;;;4972289;28;20419;-76
2021/06/17 07:39:21;;;;;;;2.73;2.53;;;32.70;96.40;;;;;;4972216;28;20271;-77
2021/06/17 07:41:46;;;;;;;9.17;2.80;;;33.10;97.60;;;;;;4971796;28;20215;-77
2021/06/17 07:44:12;;;;;;;2.70;2.50;;;33.60;96.20;;;;;;4971938;28;20657;-77
2021/06/17 07:46:38;;;;;;;6.83;3.03;;;33.30;95.00;;;;;;4972094;28;20172;-76
2021/06/17 07:49:03;;;;;;;3.13;2.80;;;33.30;95.70;;;;;;4972123;28;20247;-76
2021/06/17 07:51:30;;;;;;;3.60;2.93;;;33.70;95.10;;;;;;4972060;28;20218;-76
2021/06/17 07:53:59;;;;;;;2.90;2.70;;;33.50;94.70;;;;;;4971789;28;20187;-76
2021/06/17 07:56:28;;;;;;;3.10;2.40;;;33.30;94.90;;;;;;4972154;28;21043;-76
2021/06/17 07:58:54;;;;;;;3.13;2.60;;;33.40;94.50;;;;;;4973786;28;20403;-75
2021/06/17 08:01:19;;;;;;;4.13;2.87;;;33.70;94.40;;;;;;4975193;28;20427;-77
2021/06/17 08:03:45;;;;;;;4.17;2.60;;;34.10;94.50;;;;;;4974884;28;20180;-76
2021/06/17 08:06:11;;;;;;;5.20;2.70;;;34.20;93.70;;;;;;4975366;28;20172;-76
2021/06/17 08:08:36;;;;;;;3.13;2.80;;;34.30;93.50;;;;;;4975337;28;20179;-76
2021/06/17 08:11:02;;;;;;;2.67;2.50;;;34.30;93.80;;;;;;4975413;28;20611;-76
2021/06/17 08:13:28;;;;;;;4.13;3.20;;;34.60;93.40;;;;;;4975121;28;20180;-75
2021/06/17 08:15:53;;;;;;;8.37;3.57;;;34.80;93.30;;;;;;4975219;28;20928;-76
2021/06/17 08:18:19;;;;;;;12.60;4.50;;;34.90;93.60;;;;;;4975316;28;20237;-75
2021/06/17 08:20:45;;;;;;;6.00;4.30;;;34.90;94.30;;;;;;4974818;28;20176;-76
2021/06/17 08:23:11;;;;;;;5.40;3.50;;;34.80;95.70;;;;;;4974803;28;20204;-76
2021/06/17 08:25:37;;;;;;;16.03;4.03;;;35.00;93.20;;;;;;4974829;28;20176;-76
2021/06/17 08:28:06;;;;;;;14.93;3.90;;;34.90;93.10;;;;;;4975084;28;20207;-75
2021/06/17 08:30:33;;;;;;;8.27;4.20;;;35.10;94.00;;;;;;4957272;28;20415;-76
2021/06/17 08:32:59;;;;;;;7.93;4.13;;;35.50;94.40;;;;;;4957265;28;20447;-77
2021/06/17 08:35:25;;;;;;;7.13;4.00;;;35.70;93.90;;;;;;4974826;28;20446;-76
2021/06/17 08:37:51;;;;;;;8.40;4.13;;;35.60;93.20;;;;;;4974789;28;20657;-75
2021/06/17 08:40:16;;;;;;;7.70;4.63;;;35.40;94.20;;;;;;4974674;28;20652;-75
2021/06/17 08:42:43;;;;;;;5.20;3.97;;;35.50;93.20;;;;;;4974256;28;20211;-74
2021/06/17 08:45:10;;;;;;;5.93;4.00;;;35.60;94.60;;;;;;4974619;28;20673;-76
2021/06/17 08:47:36;;;;;;;5.43;3.33;;;35.60;92.30;;;;;;4974508;28;20416;-76
2021/06/17 08:50:05;;;;;;;8.80;4.53;;;35.70;92.50;;;;;;4974841;28;20441;-76
2021/06/17 08:52:36;;;;;;;6.70;3.97;;;35.80;92.20;;;;;;4974178;28;20450;-75
2021/06/17 08:55:10;;;;;;;5.03;3.73;;;35.80;92.80;;;;;;4974620;28;20785;-76
2021/06/17 08:57:36;;;;;;;3.67;3.37;;;36.00;92.10;;;;;;4974169;28;20411;-75
2021/06/17 09:00:23;;;;;;;6.43;4.50;;;35.80;93.00;;;;;;4974459;28;20803;-76
2021/06/17 09:02:59;;;;;;;15.30;4.23;;;36.30;92.70;;;;;;4946330;28;20227;-76
2021/06/17 09:05:26;;;;;;;4.57;4.10;;;36.70;92.50;;;;;;4974489;28;20419;-76
2021/06/17 09:07:52;;;;;;;10.07;3.30;;;37.30;91.50;;;;;;4974154;28;20419;-76
2021/06/17 09:10:18;;;;;;;10.20;4.00;;;37.50;91.30;;;;;;4974048;28;20415;-76
2021/06/17 09:12:46;;;;;;;4.47;3.20;;;37.60;90.50;;;;;;4973112;28;20454;-76
2021/06/17 09:15:13;;;;;;;4.53;3.87;;;37.50;89.60;;;;;;4956942;28;20469;-76
2021/06/17 09:17:39;;;;;;;9.20;3.23;;;37.30;89.50;;;;;;4972758;28;20415;-76
2021/06/17 09:20:07;;;;;;;9.67;3.50;;;37.00;88.80;;;;;;4974204;28;20519;-76
2021/06/17 09:22:35;;;;;;;5.77;4.00;;;37.20;88.20;;;;;;4973727;28;20498;-77
2021/06/17 09:25:00;;;;;;;5.50;3.97;;;37.50;88.30;;;;;;4973921;28;20440;-74
2021/06/17 09:27:30;;;;;;;7.63;3.83;;;37.60;90.20;;;;;;4957020;28;20447;-74
2021/06/17 09:29:57;;;;;;;3.87;3.33;;;37.30;88.10;;;;;;4973931;28;20180;-74
2021/06/17 09:32:24;;;;;;;7.90;3.40;;;36.70;90.70;;;;;;4973513;28;20459;-74
2021/06/17 09:34:50;;;;;;;6.30;3.33;;;36.50;91.00;;;;;;4973486;28;20451;-74
2021/06/17 09:37:33;;;;;;;5.60;4.03;;;36.70;90.80;;;;;;4973696;28;20415;-75
2021/06/17 09:40:19;;;;;;;4.20;3.80;;;37.30;89.10;;;;;;4973994;28;20937;-76
2021/06/17 09:42:44;;;;;;;5.03;3.60;;;37.80;87.00;;;;;;4973442;28;20561;-76
2021/06/17 09:45:22;;;;;;;7.10;3.20;;;38.50;86.80;;;;;;4973549;28;20510;-76
2021/06/17 09:47:48;;;;;;;4.10;3.13;;;38.50;86.70;;;;;;4973705;28;20310;-78
2021/06/17 09:50:27;;;;;;;3.67;3.30;;;38.50;84.40;;;;;;4956281;28;20521;-76
2021/06/17 09:52:54;;;;;;;7.67;2.77;;;38.70;82.90;;;;;;4955810;28;20237;-77
2021/06/17 09:55:43;;;;;;;4.80;3.23;;;38.80;84.20;;;;;;4956110;28;20494;-76
2021/06/17 09:58:33;;;;;;;4.77;3.30;;;38.70;83.90;;;;;;4973666;28;20501;-76
2021/06/17 10:00:59;;;;;;;6.30;3.30;;;38.80;82.00;;;;;;4972931;28;20922;-76
2021/06/17 10:03:24;;;;;;;3.43;3.23;;;39.20;82.10;;;;;;4973233;28;20625;-77
2021/06/17 10:05:50;;;;;;;4.13;3.63;;;38.70;82.50;;;;;;4973199;28;20180;-77
2021/06/17 10:08:16;;;;;;;5.67;3.50;;;38.80;81.40;;;;;;4973362;28;20196;-77
2021/06/17 10:10:42;;;;;;;3.73;3.53;;;38.60;81.40;;;;;;4972797;28;20180;-76
2021/06/17 10:13:09;;;;;;;4.70;3.30;;;38.60;83.90;;;;;;4973169;28;20648;-76
2021/06/17 10:15:35;;;;;;;3.67;3.43;;;38.80;82.30;;;;;;4972809;28;20664;-76
2021/06/17 10:18:00;;;;;;;10.73;3.83;;;38.70;81.00;;;;;;4973076;28;20506;-76
2021/06/17 10:20:26;;;;;;;11.03;4.03;;;39.20;80.80;;;;;;4973202;28;20442;-76
2021/06/17 10:22:54;;;;;;;7.23;3.47;;;39.40;81.50;;;;;;4971626;28;20226;-76
2021/06/17 10:25:25;;;;;;;4.17;3.63;;;39.40;82.90;;;;;;4973079;28;20908;-76
2021/06/17 10:27:53;;;;;;;5.90;3.60;;;39.10;80.60;;;;;;4972766;28;20415;-76
2021/06/17 10:30:43;;;;;;;4.00;3.63;;;39.70;78.60;;;;;;4973123;28;20419;-76
2021/06/17 10:33:34;;;;;;;5.50;3.80;;;39.40;80.50;;;;;;4972772;28;20423;-75
2021/06/17 10:36:24;;;;;;;6.10;3.90;;;39.30;80.40;;;;;;4972870;28;20794;-75
2021/06/17 10:39:20;;;;;;;6.77;4.33;;;39.30;79.10;;;;;;4972921;28;20511;-76
2021/06/17 10:41:56;;;;;;;5.40;3.70;;;39.10;78.00;;;;;;4972514;28;20466;-77
2021/06/17 10:44:37;;;;;;;3.60;3.40;;;39.10;78.10;;;;;;5000018;28;20413;-77
2021/06/17 10:47:04;;;;;;;10.03;4.10;;;39.20;76.10;;;;;;5000353;28;20468;-77
2021/06/17 10:49:57;;;;;;;5.73;3.70;;;39.50;75.20;;;;;;5002831;28;20420;-78
2021/06/17 10:52:27;;;;;;;4.07;3.73;;;39.50;76.00;;;;;;4984494;28;20519;-77
2021/06/17 10:54:59;;;;;;;5.43;3.67;;;39.60;74.90;;;;;;5001327;28;20456;-78
2021/06/17 10:57:50;;;;;;;6.30;3.47;;;39.60;73.10;;;;;;4997698;28;20481;-77
2021/06/17 11:00:24;;;;;;;3.60;3.30;;;39.40;71.80;;;;;;5011646;28;20948;-78
2021/06/17 11:02:54;;;;;;;3.90;3.60;;;38.50;74.00;;;;;;5011084;28;20460;-77
2021/06/17 11:05:29;;;;;;;5.20;3.43;;;38.40;74.20;;;;;;4994227;28;20452;-77
2021/06/17 11:08:13;;;;;;;3.10;3.00;;;37.90;74.80;;;;;;5011477;28;20467;-78
2021/06/17 11:10:51;;;;;;;3.40;3.20;;;38.20;77.10;;;;;;5011358;28;20408;-77
2021/06/17 11:13:28;;;;;;;4.50;4.20;;;38.40;74.20;;;;;;5010404;28;20448;-77
2021/06/17 11:16:14;;;;;;;4.20;3.40;;;38.40;74.90;;;;;;5010629;28;20420;-77
2021/06/17 11:21:32;;;;;;;4.40;3.57;;;38.30;75.20;;;;;;5011188;28;20437;-76
2021/06/17 11:24:22;;;;;;;3.97;3.77;;;38.50;77.50;;;;;;4993388;28;20423;-75
2021/06/17 11:26:52;;;;;;;4.23;4.03;;;38.10;77.50;;;;;;5011135;28;20960;-75
2021/06/17 11:29:42;;;;;;;4.00;3.40;;;38.10;77.30;;;;;;5011441;28;20406;-77
2021/06/17 11:32:28;;;;;;;4.20;3.63;;;38.10;75.60;;;;;;4993061;28;20487;-76
2021/06/17 11:34:55;;;;;;;4.90;4.50;;;38.20;76.90;;;;;;4996923;28;20783;-76
2021/06/17 11:37:20;;;;;;;4.37;3.97;;;38.00;75.60;;;;;;5015037;28;20749;-77
2021/06/17 11:39:48;;;;;;;3.67;3.47;;;38.10;77.50;;;;;;5015987;28;20467;-78
2021/06/17 11:42:17;;;;;;;3.80;3.60;;;37.80;76.90;;;;;;5019290;28;20214;-73
2021/06/17 11:44:44;;;;;;;3.77;3.40;;;38.10;74.80;;;;;;4997019;28;20425;-77
2021/06/17 11:47:14;;;;;;;4.30;3.90;;;38.10;73.90;;;;;;5014729;28;20417;-76
2021/06/17 11:49:45;;;;;;;4.83;3.60;;;38.10;75.30;;;;;;5015068;28;20412;-77
2021/06/17 11:52:14;;;;;;;4.40;4.10;;;37.70;76.70;;;;;;5014477;28;20842;-77
2021/06/17 11:54:41;;;;;;;4.40;4.03;;;37.30;77.70;;;;;;5014581;28;20938;-77
2021/06/17 11:57:07;;;;;;;7.93;3.67;;;36.70;78.50;;;;;;5014513;28;20445;-78
2021/06/17 11:59:36;;;;;;;5.53;4.00;;;36.70;78.20;;;;;;5014953;28;20429;-78
2021/06/17 12:02:04;;;;;;;4.30;4.10;;;36.90;77.20;;;;;;5014317;28;20560;-77
2021/06/17 12:05:00;;;;;;;3.93;3.60;;;36.90;78.40;;;;;;5014260;28;20472;-78
2021/06/17 12:07:44;;;;;;;4.03;3.37;;;36.90;76.70;;;;;;4996721;28;20425;-78
2021/06/17 12:10:14;;;;;;;5.53;4.03;;;36.70;77.70;;;;;;5010458;28;21248;-78
2021/06/17 12:12:45;;;;;;;5.77;5.10;;;36.30;79.20;;;;;;4976990;28;20450;-77
2021/06/17 12:15:14;;;;;;;10.20;5.53;;;36.10;80.40;;;;;;4994663;28;20792;-77
2021/06/17 12:17:44;;;;;;;5.97;5.37;;;36.10;81.00;;;;;;4994529;28;20418;-78
2021/06/17 12:20:17;;;;;;;5.00;4.60;;;35.40;78.80;;;;;;4994466;28;20440;-77
2021/06/17 12:22:56;;;;;;;5.47;5.07;;;35.20;83.30;;;;;;4994164;28;20458;-77
2021/06/17 12:25:23;;;;;;;4.50;4.10;;;35.10;82.00;;;;;;4994617;28;20414;-77
2021/06/17 12:27:49;;;;;;;11.97;4.40;;;35.00;81.80;;;;;;4994238;28;20443;-77
2021/06/17 12:30:35;;;;;;;5.63;5.13;;;35.00;81.50;;;;;;4994629;28;20414;-76
2021/06/17 12:33:11;;;;;;;4.60;4.07;;;35.10;82.00;;;;;;4993973;28;20430;-77
2021/06/17 12:35:51;;;;;;;10.43;5.10;;;35.10;80.20;;;;;;4994223;28;20429;-77
2021/06/17 12:38:29;;;;;;;7.13;3.97;;;34.80;80.60;;;;;;4994483;28;20810;-78
2021/06/17 12:41:16;;;;;;;6.13;4.90;;;34.50;83.30;;;;;;4993916;28;20433;-77
2021/06/17 12:43:50;;;;;;;5.70;4.70;;;34.70;81.60;;;;;;4980287;28;20469;-78
2021/06/17 12:46:22;;;;;;;11.80;4.63;;;34.60;81.50;;;;;;4993140;28;20450;-78
2021/06/17 12:54:21;;;;;;;5.10;4.13;;;33.90;81.60;;;;;;4993643;28;20457;-78
2021/06/17 12:57:01;;;;;;;7.43;4.63;;;33.90;83.60;;;;;;4993915;28;20419;-78
2021/06/17 12:59:40;;;;;;;5.90;5.13;;;34.00;82.80;;;;;;4994042;28;20414;-78
2021/06/17 13:02:08;;;;;;;10.40;4.43;;;34.00;81.70;;;;;;4993330;28;20982;-76
2021/06/17 13:04:33;;;;;;;6.70;4.53;;;33.80;80.90;;;;;;4993640;28;20415;-78
2021/06/17 13:07:00;;;;;;;5.50;5.03;;;33.70;81.10;;;;;;4976382;28;20426;-78
2021/06/17 13:09:27;;;;;;;5.13;4.37;;;33.60;81.00;;;;;;4994093;28;20172;-78
2021/06/17 13:12:13;;;;;;;5.17;4.60;;;33.50;81.60;;;;;;4992975;28;20446;-78
2021/06/17 13:14:59;;;;;;;5.67;4.63;;;33.50;82.00;;;;;;4990776;28;20421;-77
2021/06/17 13:17:25;;;;;;;4.77;4.47;;;33.60;82.80;;;;;;4992670;28;20426;-77
2021/06/17 13:19:52;;;;;;;4.47;4.07;;;33.70;80.20;;;;;;4975990;28;20414;-78
2021/06/17 13:22:21;;;;;;;4.47;4.07;;;33.50;80.50;;;;;;4993076;28;20454;-77
2021/06/17 13:24:47;;;;;;;5.10;4.77;;;33.60;82.90;;;;;;4992941;28;20995;-77
2021/06/17 13:27:20;;;;;;;5.40;5.00;;;33.70;82.90;;;;;;4993125;28;20411;-77
2021/06/17 13:29:58;;;;;;;6.30;4.70;;;33.80;80.10;;;;;;4988755;28;20502;-77
2021/06/17 13:32:24;;;;;;;7.30;5.70;;;33.80;80.10;;;;;;4966832;28;21010;-77
2021/06/17 13:34:50;;;;;;;5.13;4.73;;;33.80;79.60;;;;;;4993102;28;20418;-78
2021/06/17 13:37:16;;;;;;;5.30;4.50;;;33.80;79.00;;;;;;4993075;28;20699;-75
2021/06/17 13:39:44;;;;;;;4.07;3.77;;;33.80;81.60;;;;;;4993021;28;20759;-74
2021/06/17 13:42:10;;;;;;;6.80;4.23;;;33.70;80.00;;;;;;4992816;28;20251;-76
2021/06/17 13:44:35;;;;;;;4.90;4.50;;;33.70;81.90;;;;;;4991510;28;20514;-75
2021/06/17 13:47:01;;;;;;;4.40;4.07;;;33.70;79.90;;;;;;4992758;28;20179;-75
2021/06/17 13:49:27;;;;;;;4.87;4.00;;;33.60;79.30;;;;;;4989198;28;20636;-75
2021/06/17 13:51:55;;;;;;;5.90;3.70;;;33.70;80.00;;;;;;4987021;28;20477;-74
2021/06/17 13:54:25;;;;;;;3.63;3.37;;;33.70;79.50;;;;;;4985079;28;20189;-75
2021/06/17 13:56:51;;;;;;;4.70;3.87;;;33.70;81.70;;;;;;4992248;28;20425;-75
2021/06/17 13:59:18;;;;;;;6.13;3.70;;;33.70;81.40;;;;;;4992649;28;20518;-75
2021/06/17 14:01:44;;;;;;;7.03;4.10;;;33.70;79.10;;;;;;4992286;28;20435;-74
2021/06/17 14:04:16;;;;;;;5.17;4.00;;;33.60;78.60;;;;;;4988808;28;20449;-74
2021/06/17 14:06:41;;;;;;;4.67;4.27;;;33.60;79.40;;;;;;4984748;28;20596;-74
2021/06/17 14:09:07;;;;;;;4.97;4.53;;;33.50;78.20;;;;;;4992217;28;20449;-74
2021/06/17 14:11:33;;;;;;;13.03;4.17;;;33.50;79.60;;;;;;4974682;28;20203;-75
2021/06/17 14:13:58;;;;;;;4.33;4.03;;;33.40;79.10;;;;;;4991992;28;20171;-74
2021/06/17 14:16:24;;;;;;;5.30;4.37;;;33.40;80.20;;;;;;4992128;28;20183;-75
2021/06/17 14:18:49;;;;;;;8.13;4.20;;;33.40;78.00;;;;;;4973931;28;20671;-74
2021/06/17 14:21:15;;;;;;;6.97;4.23;;;33.30;78.20;;;;;;4991952;28;20671;-74
2021/06/17 14:23:40;;;;;;;7.00;3.57;;;33.30;79.50;;;;;;4991843;28;20385;-74
2021/06/17 14:26:06;;;;;;;6.20;3.77;;;33.30;78.80;;;;;;4991968;28;20614;-75
2021/06/17 14:28:31;;;;;;;3.80;3.30;;;33.40;80.20;;;;;;4992115;28;20553;-74
2021/06/17 14:30:57;;;;;;;3.70;3.43;;;33.30;80.60;;;;;;4991805;28;20195;-74
2021/06/17 14:33:23;;;;;;;4.10;3.70;;;33.30;80.30;;;;;;4991562;28;20175;-74
2021/06/17 14:35:48;;;;;;;5.50;3.80;;;33.40;79.90;;;;;;4992117;28;20171;-74
2021/06/17 14:38:14;;;;;;;5.57;3.60;;;33.40;78.50;;;;;;4974344;28;20415;-75
2021/06/17 14:40:41;;;;;;;5.93;4.57;;;33.50;79.60;;;;;;4991985;28;20262;-75
2021/06/17 14:43:07;;;;;;;4.10;3.70;;;33.40;78.70;;;;;;4991392;28;20617;-75
2021/06/17 14:45:32;;;;;;;4.90;3.77;;;33.30;78.50;;;;;;4974325;28;20850;-74
2021/06/17 14:47:58;;;;;;;4.53;3.50;;;33.20;79.40;;;;;;4974115;28;20427;-75
2021/06/17 14:50:24;;;;;;;4.47;4.07;;;33.20;80.20;;;;;;4981960;28;20187;-75
2021/06/17 14:52:50;;;;;;;4.77;3.90;;;33.30;79.00;;;;;;4991720;28;20577;-75
2021/06/17 14:55:18;;;;;;;6.00;5.50;;;33.30;79.40;;;;;;4991502;28;20673;-76
2021/06/17 14:57:44;;;;;;;4.23;3.93;;;33.30;79.80;;;;;;4991891;28;20258;-76
2021/06/17 15:00:10;;;;;;;5.93;3.50;;;33.30;79.20;;;;;;4991518;28;20502;-76
2021/06/17 15:02:36;;;;;;;6.93;3.80;;;33.20;79.70;;;;;;4991161;28;20207;-76
2021/06/17 15:05:01;;;;;;;4.57;3.53;;;33.20;80.00;;;;;;4999803;28;20441;-75
2021/06/17 15:07:27;;;;;;;4.40;3.80;;;33.20;78.70;;;;;;4992597;28;20250;-75
2021/06/17 15:09:53;;;;;;;7.27;4.13;;;33.30;79.90;;;;;;4995201;28;20250;-76
2021/06/17 15:12:18;;;;;;;4.30;3.90;;;33.20;79.70;;;;;;4995154;28;20195;-74
2021/06/17 15:14:44;;;;;;;8.03;4.57;;;33.20;78.10;;;;;;4978148;28;20230;-74
2021/06/17 15:17:11;;;;;;;4.27;3.97;;;33.20;77.50;;;;;;4998196;28;20190;-75
2021/06/17 15:19:37;;;;;;;5.03;4.37;;;33.20;77.80;;;;;;4994340;28;20421;-75
2021/06/17 15:22:03;;;;;;;4.83;4.53;;;33.10;79.00;;;;;;4995345;28;20466;-74
2021/06/17 15:24:29;;;;;;;6.13;4.13;;;33.10;78.00;;;;;;4995444;28;20180;-75
2021/06/17 15:26:54;;;;;;;4.50;3.70;;;33.10;78.00;;;;;;4977985;28;20168;-74
2021/06/17 15:29:20;;;;;;;10.87;4.80;;;33.10;79.00;;;;;;4995606;28;20176;-74
2021/06/17 15:31:46;;;;;;;4.20;3.80;;;33.00;79.40;;;;;;4977660;28;20305;-73
2021/06/17 15:34:12;;;;;;;4.80;3.97;;;33.00;78.30;;;;;;4995001;28;20226;-75
2021/06/17 15:36:38;;;;;;;3.43;3.23;;;32.90;78.10;;;;;;4995209;28;20186;-75
2021/06/17 15:39:05;;;;;;;4.20;3.03;;;32.90;78.70;;;;;;4995140;28;20503;-75
2021/06/17 15:41:30;;;;;;;4.43;3.50;;;32.80;78.90;;;;;;4994972;28;20199;-75
2021/06/17 15:43:56;;;;;;;3.60;3.30;;;32.80;79.60;;;;;;4995211;28;20427;-75
2021/06/17 15:46:22;;;;;;;4.00;3.70;;;32.80;80.80;;;;;;4995602;28;20179;-74
2021/06/17 15:48:47;;;;;;;5.13;3.43;;;32.80;79.50;;;;;;4994857;28;20179;-75
2021/06/17 15:51:13;;;;;;;5.00;3.60;;;32.80;78.80;;;;;;4997034;28;20623;-74
2021/06/17 15:53:38;;;;;;;4.67;3.30;;;32.60;79.80;;;;;;5004248;28;20179;-73
2021/06/17 15:56:04;;;;;;;5.00;4.13;;;32.60;80.00;;;;;;5002789;28;20190;-72
2021/06/17 15:58:30;;;;;;;9.10;4.53;;;32.60;78.50;;;;;;5003138;28;20201;-72
2021/06/17 16:00:56;;;;;;;8.07;4.07;;;32.60;78.60;;;;;;5003896;28;20249;-72
2021/06/17 16:03:22;;;;;;;13.07;4.57;;;32.60;79.40;;;;;;4998941;28;20238;-72
2021/06/17 16:05:47;;;;;;;3.40;3.17;;;32.60;79.20;;;;;;5003895;28;20167;-73
2021/06/17 16:08:14;;;;;;;3.77;3.57;;;32.50;79.40;;;;;;5002490;28;20411;-72
2021/06/17 16:10:43;;;;;;;4.63;3.80;;;32.30;80.20;;;;;;5003026;28;20170;-72
2021/06/17 16:13:09;;;;;;;4.80;3.43;;;32.30;79.50;;;;;;5006774;28;20503;-72
2021/06/17 16:15:35;;;;;;;5.83;3.87;;;32.20;79.60;;;;;;5014144;28;20552;-74
2021/06/17 16:18:02;;;;;;;6.00;4.40;;;32.20;79.90;;;;;;5014043;28;20174;-73
2021/06/17 16:20:29;;;;;;;9.80;4.30;;;32.20;79.20;;;;;;5013923;28;20221;-75
2021/06/17 16:22:55;;;;;;;9.33;3.53;;;32.20;79.70;;;;;;5013381;28;20487;-73
2021/06/17 16:25:22;;;;;;;8.23;4.00;;;32.20;79.40;;;;;;5002924;28;20430;-74
2021/06/17 16:27:48;;;;;;;7.17;3.73;;;32.20;79.70;;;;;;4994112;28;20415;-74
2021/06/17 16:30:15;;;;;;;8.70;5.30;;;32.10;79.30;;;;;;4994058;28;20501;-74
2021/06/17 16:32:41;;;;;;;4.07;3.50;;;32.10;80.30;;;;;;4992957;28;20476;-74
2021/06/17 16:35:08;;;;;;;5.23;4.07;;;31.90;80.20;;;;;;4994201;28;20414;-74
2021/06/17 16:37:35;;;;;;;7.83;4.00;;;31.90;81.20;;;;;;4994295;28;20419;-74
2021/06/17 16:40:01;;;;;;;4.43;3.50;;;31.80;81.20;;;;;;4994040;28;20501;-74
2021/06/17 16:42:27;;;;;;;4.70;3.83;;;31.70;81.20;;;;;;4993818;28;20541;-74
2021/06/17 16:44:53;;;;;;;5.50;3.37;;;31.60;80.70;;;;;;4993724;28;20199;-74
2021/06/17 16:47:19;;;;;;;6.70;4.07;;;31.60;81.00;;;;;;4994050;28;20912;-74
2021/06/17 16:49:45;;;;;;;3.87;3.60;;;31.50;82.00;;;;;;4976480;28;20419;-74
2021/06/17 16:52:12;;;;;;;7.00;3.67;;;31.50;82.20;;;;;;4993578;28;20446;-74
2021/06/17 16:54:38;;;;;;;7.10;4.10;;;31.50;81.90;;;;;;4993454;28;20411;-73
2021/06/17 16:57:05;;;;;;;3.83;3.57;;;31.30;81.60;;;;;;4993573;28;20476;-74
2021/06/17 16:59:31;;;;;;;10.17;7.00;;;31.30;82.10;;;;;;4993687;28;20411;-74
2021/06/17 17:01:57;;;;;;;4.23;3.63;;;31.30;81.80;;;;;;4993340;28;20453;-74
2021/06/17 17:04:23;;;;;;;4.00;3.70;;;31.20;81.90;;;;;;4993196;28;20180;-75
2021/06/17 17:06:48;;;;;;;4.57;3.67;;;31.20;82.60;;;;;;4993531;28;20171;-74
2021/06/17 17:09:14;;;;;;;4.00;3.70;;;31.20;82.10;;;;;;4993423;28;20266;-74
2021/06/17 17:11:40;;;;;;;8.53;4.13;;;31.10;82.40;;;;;;4993131;28;20262;-74
2021/06/17 17:14:06;;;;;;;3.20;3.00;;;31.10;82.00;;;;;;4992321;28;20182;-74
2021/06/17 17:16:33;;;;;;;5.90;3.80;;;31.00;82.30;;;;;;4993306;28;20909;-74
2021/06/17 17:18:59;;;;;;;8.47;4.30;;;31.00;82.50;;;;;;4993035;28;20171;-75
2021/06/17 17:21:25;;;;;;;7.37;4.10;;;30.90;81.90;;;;;;4992930;28;21020;-75
2021/06/17 17:23:51;;;;;;;5.60;3.70;;;30.80;82.80;;;;;;4992919;28;20461;-75
2021/06/17 17:26:18;;;;;;;3.43;3.23;;;30.80;82.90;;;;;;4993332;28;20418;-73
2021/06/17 17:28:44;;;;;;;5.70;4.17;;;30.70;83.80;;;;;;4993035;28;20805;-72
2021/06/17 17:31:10;;;;;;;4.03;3.33;;;30.60;84.00;;;;;;4992226;28;20443;-72
2021/06/17 17:33:36;;;;;;;8.27;3.60;;;30.60;84.20;;;;;;4992664;28;20183;-72
2021/06/17 17:36:01;;;;;;;8.17;4.00;;;30.50;84.60;;;;;;4993012;28;20490;-72